sensor_id;sensor_type;location;lat;lon;timestamp;P1;durP1;ratioP1;P2;durP2;ratioP2
15486;SDS011;7845;53.698;10.078;2022-07-06T00:01:22;4.50;;;1.90;;
15486;SDS011;7845;53.698;10.078;2022-07-06T00:03:48;5.77;;;1.50;;
15486;SDS011;7845;53.698;10.078;2022-07-06T00:06:14;7.43;;;1.90;;
15486;SDS011;7845;53.698;10.078;2022-07-06T00:08:41;4.50;;;1.60;;
15486;SDS011;7845;53.698;10.078;2022-07-06T00:11:07;5.47;;;1.87;;
15486;SDS011;7845;53.698;10.078;2022-07-06T00:13:32;6.40;;;2.20;;
15486;SDS011;7845;53.698;10.078;2022-07-06T00:15:57;4.07;;;1.77;;
15486;SDS011;7845;53.698;10.078;2022-07-06T00:18:22;3.67;;;1.47;;
15486;SDS011;7845;53.698;10.078;2022-07-06T00:20:51;5.07;;;1.83;;
15486;SDS011;7845;53.698;10.078;2022-07-06T00:23:17;3.17;;;1.50;;
15486;SDS011;7845;53.698;10.078;2022-07-06T00:25:43;5.50;;;2.10;;
15486;SDS011;7845;53.698;10.078;2022-07-06T00:28:08;4.57;;;1.67;;
15486;SDS011;7845;53.698;10.078;2022-07-06T00:30:34;5.77;;;1.87;;
15486;SDS011;7845;53.698;10.078;2022-07-06T00:32:59;5.17;;;1.83;;
15486;SDS011;7845;53.698;10.078;2022-07-06T00:35:25;4.10;;;1.77;;
15486;SDS011;7845;53.698;10.078;2022-07-06T00:37:50;4.77;;;1.70;;
15486;SDS011;7845;53.698;10.078;2022-07-06T00:40:17;4.47;;;1.60;;
15486;SDS011;7845;53.698;10.078;2022-07-06T00:42:44;4.70;;;1.60;;
15486;SDS011;7845;53.698;10.078;2022-07-06T00:45:11;5.83;;;2.17;;
15486;SDS011;7845;53.698;10.078;2022-07-06T00:47:37;3.60;;;1.30;;
15486;SDS011;7845;53.698;10.078;2022-07-06T00:50:04;4.50;;;1.57;;
15486;SDS011;7845;53.698;10.078;2022-07-06T00:52:41;4.80;;;1.40;;
15486;SDS011;7845;53.698;10.078;2022-07-06T00:55:07;4.10;;;1.67;;
15486;SDS011;7845;53.698;10.078;2022-07-06T00:57:34;4.83;;;1.50;;
15486;SDS011;7845;53.698;10.078;2022-07-06T01:00:00;6.30;;;1.50;;
15486;SDS011;7845;53.698;10.078;2022-07-06T01:02:30;5.77;;;1.60;;
15486;SDS011;7845;53.698;10.078;2022-07-06T01:04:57;6.10;;;1.90;;
15486;SDS011;7845;53.698;10.078;2022-07-06T01:07:22;4.87;;;1.50;;
15486;SDS011;7845;53.698;10.078;2022-07-06T01:09:48;6.67;;;1.63;;
15486;SDS011;7845;53.698;10.078;2022-07-06T01:12:13;4.40;;;1.37;;
15486;SDS011;7845;53.698;10.078;2022-07-06T01:14:39;4.77;;;1.63;;
15486;SDS011;7845;53.698;10.078;2022-07-06T01:17:05;4.90;;;1.50;;
15486;SDS011;7845;53.698;10.078;2022-07-06T01:19:33;5.20;;;1.80;;
15486;SDS011;7845;53.698;10.078;2022-07-06T01:21:58;6.67;;;2.03;;
15486;SDS011;7845;53.698;10.078;2022-07-06T01:24:24;4.33;;;1.40;;
15486;SDS011;7845;53.698;10.078;2022-07-06T01:26:50;4.47;;;1.37;;
15486;SDS011;7845;53.698;10.078;2022-07-06T01:29:16;4.00;;;1.17;;
15486;SDS011;7845;53.698;10.078;2022-07-06T01:31:48;4.43;;;1.60;;
15486;SDS011;7845;53.698;10.078;2022-07-06T01:34:16;6.20;;;1.80;;
15486;SDS011;7845;53.698;10.078;2022-07-06T01:36:42;4.47;;;1.40;;
15486;SDS011;7845;53.698;10.078;2022-07-06T01:39:09;3.70;;;1.50;;
15486;SDS011;7845;53.698;10.078;2022-07-06T01:41:34;4.20;;;1.57;;
15486;SDS011;7845;53.698;10.078;2022-07-06T01:44:00;4.47;;;2.17;;
15486;SDS011;7845;53.698;10.078;2022-07-06T01:46:26;5.93;;;1.80;;
15486;SDS011;7845;53.698;10.078;2022-07-06T01:48:53;5.13;;;1.50;;
15486;SDS011;7845;53.698;10.078;2022-07-06T01:51:18;4.83;;;1.30;;
15486;SDS011;7845;53.698;10.078;2022-07-06T01:53:44;5.00;;;1.53;;
15486;SDS011;7845;53.698;10.078;2022-07-06T01:56:10;6.03;;;1.83;;
15486;SDS011;7845;53.698;10.078;2022-07-06T01:58:36;4.73;;;1.87;;
15486;SDS011;7845;53.698;10.078;2022-07-06T02:01:06;5.70;;;1.80;;
15486;SDS011;7845;53.698;10.078;2022-07-06T02:03:33;5.03;;;1.80;;
15486;SDS011;7845;53.698;10.078;2022-07-06T02:05:59;6.37;;;1.77;;
15486;SDS011;7845;53.698;10.078;2022-07-06T02:08:25;6.30;;;1.77;;
15486;SDS011;7845;53.698;10.078;2022-07-06T02:10:50;5.37;;;1.47;;
15486;SDS011;7845;53.698;10.078;2022-07-06T02:13:16;4.30;;;1.43;;
15486;SDS011;7845;53.698;10.078;2022-07-06T02:15:41;3.67;;;1.30;;
15486;SDS011;7845;53.698;10.078;2022-07-06T02:18:13;3.60;;;1.57;;
15486;SDS011;7845;53.698;10.078;2022-07-06T02:20:38;4.07;;;1.30;;
15486;SDS011;7845;53.698;10.078;2022-07-06T02:23:04;3.43;;;1.03;;
15486;SDS011;7845;53.698;10.078;2022-07-06T02:25:29;4.00;;;1.37;;
15486;SDS011;7845;53.698;10.078;2022-07-06T02:27:55;3.33;;;1.00;;
15486;SDS011;7845;53.698;10.078;2022-07-06T02:30:20;4.70;;;1.40;;
15486;SDS011;7845;53.698;10.078;2022-07-06T02:32:45;4.23;;;1.13;;
15486;SDS011;7845;53.698;10.078;2022-07-06T02:35:11;4.30;;;0.97;;
15486;SDS011;7845;53.698;10.078;2022-07-06T02:37:37;3.03;;;0.73;;
15486;SDS011;7845;53.698;10.078;2022-07-06T02:40:02;4.77;;;1.10;;
15486;SDS011;7845;53.698;10.078;2022-07-06T02:42:31;3.53;;;1.00;;
15486;SDS011;7845;53.698;10.078;2022-07-06T02:44:56;2.40;;;0.70;;
15486;SDS011;7845;53.698;10.078;2022-07-06T02:47:22;4.37;;;1.27;;
15486;SDS011;7845;53.698;10.078;2022-07-06T02:49:47;3.80;;;0.80;;
15486;SDS011;7845;53.698;10.078;2022-07-06T02:52:19;2.97;;;0.87;;
15486;SDS011;7845;53.698;10.078;2022-07-06T02:54:45;3.53;;;1.10;;
15486;SDS011;7845;53.698;10.078;2022-07-06T02:57:10;4.00;;;1.00;;
15486;SDS011;7845;53.698;10.078;2022-07-06T02:59:36;3.80;;;1.10;;
15486;SDS011;7845;53.698;10.078;2022-07-06T03:02:05;2.90;;;0.90;;
15486;SDS011;7845;53.698;10.078;2022-07-06T03:04:30;3.23;;;0.73;;
15486;SDS011;7845;53.698;10.078;2022-07-06T03:06:59;3.17;;;0.90;;
15486;SDS011;7845;53.698;10.078;2022-07-06T03:09:25;2.97;;;0.90;;
15486;SDS011;7845;53.698;10.078;2022-07-06T03:12:00;3.50;;;1.47;;
15486;SDS011;7845;53.698;10.078;2022-07-06T03:14:25;4.03;;;1.20;;
15486;SDS011;7845;53.698;10.078;2022-07-06T03:16:51;3.57;;;1.10;;
15486;SDS011;7845;53.698;10.078;2022-07-06T03:19:20;3.50;;;1.13;;
15486;SDS011;7845;53.698;10.078;2022-07-06T03:21:49;3.73;;;1.30;;
15486;SDS011;7845;53.698;10.078;2022-07-06T03:24:14;3.90;;;1.00;;
15486;SDS011;7845;53.698;10.078;2022-07-06T03:26:43;2.60;;;1.00;;
15486;SDS011;7845;53.698;10.078;2022-07-06T03:29:11;3.17;;;0.97;;
15486;SDS011;7845;53.698;10.078;2022-07-06T03:31:43;4.13;;;1.20;;
15486;SDS011;7845;53.698;10.078;2022-07-06T03:34:09;3.37;;;1.23;;
15486;SDS011;7845;53.698;10.078;2022-07-06T03:36:34;3.27;;;1.10;;
15486;SDS011;7845;53.698;10.078;2022-07-06T03:39:03;5.57;;;1.50;;
15486;SDS011;7845;53.698;10.078;2022-07-06T03:41:30;4.13;;;1.30;;
15486;SDS011;7845;53.698;10.078;2022-07-06T03:43:55;3.70;;;1.27;;
15486;SDS011;7845;53.698;10.078;2022-07-06T03:46:21;3.13;;;0.90;;
15486;SDS011;7845;53.698;10.078;2022-07-06T03:48:47;5.03;;;1.23;;
15486;SDS011;7845;53.698;10.078;2022-07-06T03:51:12;4.33;;;1.23;;
15486;SDS011;7845;53.698;10.078;2022-07-06T03:53:38;4.00;;;1.67;;
15486;SDS011;7845;53.698;10.078;2022-07-06T03:56:04;3.70;;;1.30;;
15486;SDS011;7845;53.698;10.078;2022-07-06T03:58:48;3.50;;;0.93;;
15486;SDS011;7845;53.698;10.078;2022-07-06T04:01:16;3.50;;;1.10;;
15486;SDS011;7845;53.698;10.078;2022-07-06T04:03:42;5.60;;;1.30;;
15486;SDS011;7845;53.698;10.078;2022-07-06T04:06:07;5.40;;;1.23;;
15486;SDS011;7845;53.698;10.078;2022-07-06T04:08:32;3.60;;;1.23;;
15486;SDS011;7845;53.698;10.078;2022-07-06T04:10:58;4.57;;;1.50;;
15486;SDS011;7845;53.698;10.078;2022-07-06T04:13:23;5.33;;;1.50;;
15486;SDS011;7845;53.698;10.078;2022-07-06T04:15:51;4.90;;;1.47;;
15486;SDS011;7845;53.698;10.078;2022-07-06T04:18:16;5.40;;;1.80;;
15486;SDS011;7845;53.698;10.078;2022-07-06T04:20:42;5.63;;;2.20;;
15486;SDS011;7845;53.698;10.078;2022-07-06T04:23:08;3.90;;;1.43;;
15486;SDS011;7845;53.698;10.078;2022-07-06T04:25:36;6.13;;;1.30;;
15486;SDS011;7845;53.698;10.078;2022-07-06T04:28:02;2.93;;;1.23;;
15486;SDS011;7845;53.698;10.078;2022-07-06T04:30:27;4.87;;;1.40;;
15486;SDS011;7845;53.698;10.078;2022-07-06T04:32:53;4.43;;;1.50;;
15486;SDS011;7845;53.698;10.078;2022-07-06T04:35:18;4.20;;;1.43;;
15486;SDS011;7845;53.698;10.078;2022-07-06T04:37:44;4.83;;;1.20;;
15486;SDS011;7845;53.698;10.078;2022-07-06T04:40:11;5.10;;;1.47;;
15486;SDS011;7845;53.698;10.078;2022-07-06T04:42:37;5.03;;;1.20;;
15486;SDS011;7845;53.698;10.078;2022-07-06T04:45:03;3.73;;;1.13;;
15486;SDS011;7845;53.698;10.078;2022-07-06T04:47:29;5.43;;;1.37;;
15486;SDS011;7845;53.698;10.078;2022-07-06T04:49:54;4.87;;;1.47;;
15486;SDS011;7845;53.698;10.078;2022-07-06T04:52:19;6.07;;;1.57;;
15486;SDS011;7845;53.698;10.078;2022-07-06T04:54:45;3.47;;;1.30;;
15486;SDS011;7845;53.698;10.078;2022-07-06T04:57:11;5.47;;;2.03;;
15486;SDS011;7845;53.698;10.078;2022-07-06T04:59:36;4.00;;;1.40;;
15486;SDS011;7845;53.698;10.078;2022-07-06T05:02:01;4.30;;;1.60;;
15486;SDS011;7845;53.698;10.078;2022-07-06T05:04:27;5.57;;;1.57;;
15486;SDS011;7845;53.698;10.078;2022-07-06T05:06:52;3.30;;;1.30;;
15486;SDS011;7845;53.698;10.078;2022-07-06T05:09:17;4.40;;;1.40;;
15486;SDS011;7845;53.698;10.078;2022-07-06T05:11:43;3.60;;;1.17;;
15486;SDS011;7845;53.698;10.078;2022-07-06T05:14:09;3.83;;;1.23;;
15486;SDS011;7845;53.698;10.078;2022-07-06T05:16:35;3.87;;;1.30;;
15486;SDS011;7845;53.698;10.078;2022-07-06T05:19:00;5.30;;;1.30;;
15486;SDS011;7845;53.698;10.078;2022-07-06T05:21:26;5.80;;;1.53;;
15486;SDS011;7845;53.698;10.078;2022-07-06T05:23:51;3.57;;;1.20;;
15486;SDS011;7845;53.698;10.078;2022-07-06T05:26:17;3.60;;;1.00;;
15486;SDS011;7845;53.698;10.078;2022-07-06T05:28:42;3.77;;;1.10;;
15486;SDS011;7845;53.698;10.078;2022-07-06T05:31:08;3.50;;;1.10;;
15486;SDS011;7845;53.698;10.078;2022-07-06T05:33:33;3.83;;;1.30;;
15486;SDS011;7845;53.698;10.078;2022-07-06T05:35:59;5.50;;;1.60;;
15486;SDS011;7845;53.698;10.078;2022-07-06T05:38:25;4.00;;;1.10;;
15486;SDS011;7845;53.698;10.078;2022-07-06T05:40:50;5.83;;;1.50;;
15486;SDS011;7845;53.698;10.078;2022-07-06T05:43:16;5.67;;;1.77;;
15486;SDS011;7845;53.698;10.078;2022-07-06T05:45:42;5.40;;;1.63;;
15486;SDS011;7845;53.698;10.078;2022-07-06T05:48:07;6.00;;;1.23;;
15486;SDS011;7845;53.698;10.078;2022-07-06T05:50:51;4.47;;;1.53;;
15486;SDS011;7845;53.698;10.078;2022-07-06T05:53:17;4.80;;;1.43;;
15486;SDS011;7845;53.698;10.078;2022-07-06T05:55:42;5.50;;;1.87;;
15486;SDS011;7845;53.698;10.078;2022-07-06T05:58:07;3.80;;;0.90;;
15486;SDS011;7845;53.698;10.078;2022-07-06T06:00:33;5.07;;;1.23;;
15486;SDS011;7845;53.698;10.078;2022-07-06T06:02:59;5.27;;;1.67;;
15486;SDS011;7845;53.698;10.078;2022-07-06T06:05:24;6.17;;;1.70;;
15486;SDS011;7845;53.698;10.078;2022-07-06T06:07:50;4.07;;;1.30;;
15486;SDS011;7845;53.698;10.078;2022-07-06T06:10:16;5.20;;;1.73;;
15486;SDS011;7845;53.698;10.078;2022-07-06T06:12:43;5.67;;;1.50;;
15486;SDS011;7845;53.698;10.078;2022-07-06T06:15:10;4.20;;;1.43;;
15486;SDS011;7845;53.698;10.078;2022-07-06T06:17:36;4.80;;;1.40;;
15486;SDS011;7845;53.698;10.078;2022-07-06T06:20:03;6.60;;;1.73;;
15486;SDS011;7845;53.698;10.078;2022-07-06T06:22:30;5.10;;;1.60;;
15486;SDS011;7845;53.698;10.078;2022-07-06T06:24:56;6.97;;;1.30;;
15486;SDS011;7845;53.698;10.078;2022-07-06T06:27:21;7.23;;;1.80;;
15486;SDS011;7845;53.698;10.078;2022-07-06T06:29:46;4.70;;;1.27;;
15486;SDS011;7845;53.698;10.078;2022-07-06T06:32:11;6.30;;;1.70;;
15486;SDS011;7845;53.698;10.078;2022-07-06T06:34:38;5.97;;;1.27;;
15486;SDS011;7845;53.698;10.078;2022-07-06T06:37:04;5.17;;;1.30;;
15486;SDS011;7845;53.698;10.078;2022-07-06T06:39:29;4.30;;;1.40;;
15486;SDS011;7845;53.698;10.078;2022-07-06T06:41:55;4.70;;;1.40;;
15486;SDS011;7845;53.698;10.078;2022-07-06T06:44:20;5.37;;;1.20;;
15486;SDS011;7845;53.698;10.078;2022-07-06T06:46:48;7.53;;;1.40;;
15486;SDS011;7845;53.698;10.078;2022-07-06T06:49:17;3.40;;;1.17;;
15486;SDS011;7845;53.698;10.078;2022-07-06T06:51:43;4.53;;;1.43;;
15486;SDS011;7845;53.698;10.078;2022-07-06T06:54:09;5.90;;;1.40;;
15486;SDS011;7845;53.698;10.078;2022-07-06T06:56:34;4.70;;;1.20;;
15486;SDS011;7845;53.698;10.078;2022-07-06T06:59:00;5.70;;;1.30;;
15486;SDS011;7845;53.698;10.078;2022-07-06T07:01:27;5.57;;;1.40;;
15486;SDS011;7845;53.698;10.078;2022-07-06T07:03:52;5.10;;;1.50;;
15486;SDS011;7845;53.698;10.078;2022-07-06T07:06:20;4.63;;;1.53;;
15486;SDS011;7845;53.698;10.078;2022-07-06T07:08:46;5.30;;;1.50;;
15486;SDS011;7845;53.698;10.078;2022-07-06T07:11:11;4.23;;;1.40;;
15486;SDS011;7845;53.698;10.078;2022-07-06T07:13:37;5.40;;;1.67;;
15486;SDS011;7845;53.698;10.078;2022-07-06T07:16:02;5.63;;;1.43;;
15486;SDS011;7845;53.698;10.078;2022-07-06T07:18:27;5.60;;;1.53;;
15486;SDS011;7845;53.698;10.078;2022-07-06T07:20:53;7.40;;;2.30;;
15486;SDS011;7845;53.698;10.078;2022-07-06T07:23:18;5.30;;;2.03;;
15486;SDS011;7845;53.698;10.078;2022-07-06T07:25:44;5.23;;;1.70;;
15486;SDS011;7845;53.698;10.078;2022-07-06T07:28:09;4.70;;;1.40;;
15486;SDS011;7845;53.698;10.078;2022-07-06T07:30:35;3.73;;;1.37;;
15486;SDS011;7845;53.698;10.078;2022-07-06T07:33:00;5.40;;;1.50;;
15486;SDS011;7845;53.698;10.078;2022-07-06T07:35:26;8.03;;;1.50;;
15486;SDS011;7845;53.698;10.078;2022-07-06T07:37:52;4.30;;;1.43;;
15486;SDS011;7845;53.698;10.078;2022-07-06T07:40:18;3.47;;;1.20;;
15486;SDS011;7845;53.698;10.078;2022-07-06T07:42:43;5.67;;;1.57;;
15486;SDS011;7845;53.698;10.078;2022-07-06T07:45:10;4.77;;;1.27;;
15486;SDS011;7845;53.698;10.078;2022-07-06T07:47:35;4.57;;;1.50;;
15486;SDS011;7845;53.698;10.078;2022-07-06T07:50:01;6.60;;;2.00;;
15486;SDS011;7845;53.698;10.078;2022-07-06T07:52:27;4.73;;;2.07;;
15486;SDS011;7845;53.698;10.078;2022-07-06T07:54:53;3.50;;;1.17;;
15486;SDS011;7845;53.698;10.078;2022-07-06T07:57:18;3.33;;;1.40;;
15486;SDS011;7845;53.698;10.078;2022-07-06T07:59:43;5.20;;;1.20;;
15486;SDS011;7845;53.698;10.078;2022-07-06T08:02:09;4.30;;;1.60;;
15486;SDS011;7845;53.698;10.078;2022-07-06T08:04:34;5.40;;;1.20;;
15486;SDS011;7845;53.698;10.078;2022-07-06T08:06:59;5.10;;;1.60;;
15486;SDS011;7845;53.698;10.078;2022-07-06T08:09:25;4.77;;;1.07;;
15486;SDS011;7845;53.698;10.078;2022-07-06T08:11:50;2.87;;;0.70;;
15486;SDS011;7845;53.698;10.078;2022-07-06T08:14:16;3.90;;;0.83;;
15486;SDS011;7845;53.698;10.078;2022-07-06T08:16:42;4.80;;;1.13;;
15486;SDS011;7845;53.698;10.078;2022-07-06T08:19:08;3.00;;;0.90;;
15486;SDS011;7845;53.698;10.078;2022-07-06T08:21:34;4.20;;;1.17;;
15486;SDS011;7845;53.698;10.078;2022-07-06T08:24:00;2.60;;;0.90;;
15486;SDS011;7845;53.698;10.078;2022-07-06T08:26:27;3.07;;;0.80;;
15486;SDS011;7845;53.698;10.078;2022-07-06T08:28:53;4.83;;;1.23;;
15486;SDS011;7845;53.698;10.078;2022-07-06T08:31:18;2.50;;;0.70;;
15486;SDS011;7845;53.698;10.078;2022-07-06T08:33:43;3.00;;;0.87;;
15486;SDS011;7845;53.698;10.078;2022-07-06T08:36:09;4.77;;;1.00;;
15486;SDS011;7845;53.698;10.078;2022-07-06T08:38:34;2.73;;;0.70;;
15486;SDS011;7845;53.698;10.078;2022-07-06T08:41:00;4.23;;;1.07;;
15486;SDS011;7845;53.698;10.078;2022-07-06T08:43:26;2.80;;;0.90;;
15486;SDS011;7845;53.698;10.078;2022-07-06T08:45:52;3.70;;;0.90;;
15486;SDS011;7845;53.698;10.078;2022-07-06T08:48:19;3.37;;;0.80;;
15486;SDS011;7845;53.698;10.078;2022-07-06T08:50:48;4.40;;;1.37;;
15486;SDS011;7845;53.698;10.078;2022-07-06T08:53:14;3.07;;;0.93;;
15486;SDS011;7845;53.698;10.078;2022-07-06T08:55:42;4.37;;;1.10;;
15486;SDS011;7845;53.698;10.078;2022-07-06T08:58:07;3.40;;;1.00;;
15486;SDS011;7845;53.698;10.078;2022-07-06T09:00:34;3.17;;;0.90;;
15486;SDS011;7845;53.698;10.078;2022-07-06T09:03:00;3.10;;;1.03;;
15486;SDS011;7845;53.698;10.078;2022-07-06T09:05:26;4.10;;;1.03;;
15486;SDS011;7845;53.698;10.078;2022-07-06T09:07:53;5.20;;;1.00;;
15486;SDS011;7845;53.698;10.078;2022-07-06T09:10:21;3.83;;;1.00;;
15486;SDS011;7845;53.698;10.078;2022-07-06T09:12:47;4.00;;;0.90;;
15486;SDS011;7845;53.698;10.078;2022-07-06T09:15:12;4.10;;;1.07;;
15486;SDS011;7845;53.698;10.078;2022-07-06T09:17:38;3.47;;;0.90;;
15486;SDS011;7845;53.698;10.078;2022-07-06T09:20:08;3.70;;;0.67;;
15486;SDS011;7845;53.698;10.078;2022-07-06T09:22:35;3.50;;;0.60;;
15486;SDS011;7845;53.698;10.078;2022-07-06T09:25:02;4.07;;;1.10;;
15486;SDS011;7845;53.698;10.078;2022-07-06T09:27:29;2.77;;;0.70;;
15486;SDS011;7845;53.698;10.078;2022-07-06T09:29:58;2.57;;;0.50;;
15486;SDS011;7845;53.698;10.078;2022-07-06T09:32:26;2.70;;;0.50;;
15486;SDS011;7845;53.698;10.078;2022-07-06T09:34:51;4.37;;;0.70;;
15486;SDS011;7845;53.698;10.078;2022-07-06T09:37:17;2.57;;;0.57;;
15486;SDS011;7845;53.698;10.078;2022-07-06T09:39:43;3.60;;;1.13;;
15486;SDS011;7845;53.698;10.078;2022-07-06T09:42:09;2.47;;;0.50;;
15486;SDS011;7845;53.698;10.078;2022-07-06T09:44:35;4.17;;;0.67;;
15486;SDS011;7845;53.698;10.078;2022-07-06T09:47:03;4.00;;;0.60;;
15486;SDS011;7845;53.698;10.078;2022-07-06T09:49:30;2.70;;;0.60;;
15486;SDS011;7845;53.698;10.078;2022-07-06T09:52:00;3.33;;;0.70;;
15486;SDS011;7845;53.698;10.078;2022-07-06T09:54:29;3.63;;;0.80;;
15486;SDS011;7845;53.698;10.078;2022-07-06T09:56:55;2.60;;;0.70;;
15486;SDS011;7845;53.698;10.078;2022-07-06T09:59:22;3.40;;;0.77;;
15486;SDS011;7845;53.698;10.078;2022-07-06T10:01:52;3.00;;;0.57;;
15486;SDS011;7845;53.698;10.078;2022-07-06T10:04:19;3.93;;;0.80;;
15486;SDS011;7845;53.698;10.078;2022-07-06T10:06:46;3.60;;;0.80;;
15486;SDS011;7845;53.698;10.078;2022-07-06T10:09:13;4.03;;;0.77;;
15486;SDS011;7845;53.698;10.078;2022-07-06T10:11:40;4.40;;;0.90;;
15486;SDS011;7845;53.698;10.078;2022-07-06T10:14:08;3.67;;;1.00;;
15486;SDS011;7845;53.698;10.078;2022-07-06T10:16:36;3.67;;;0.70;;
15486;SDS011;7845;53.698;10.078;2022-07-06T10:19:03;2.53;;;0.50;;
15486;SDS011;7845;53.698;10.078;2022-07-06T10:21:30;2.70;;;0.70;;
15486;SDS011;7845;53.698;10.078;2022-07-06T10:23:56;4.13;;;0.83;;
15486;SDS011;7845;53.698;10.078;2022-07-06T10:26:24;4.30;;;0.60;;
15486;SDS011;7845;53.698;10.078;2022-07-06T10:28:50;3.17;;;0.70;;
15486;SDS011;7845;53.698;10.078;2022-07-06T10:31:18;2.90;;;0.90;;
15486;SDS011;7845;53.698;10.078;2022-07-06T10:33:45;5.40;;;0.77;;
15486;SDS011;7845;53.698;10.078;2022-07-06T10:36:11;2.43;;;0.60;;
15486;SDS011;7845;53.698;10.078;2022-07-06T10:38:39;3.80;;;0.70;;
15486;SDS011;7845;53.698;10.078;2022-07-06T10:41:06;5.67;;;1.30;;
15486;SDS011;7845;53.698;10.078;2022-07-06T10:43:41;3.80;;;0.70;;
15486;SDS011;7845;53.698;10.078;2022-07-06T10:46:14;3.47;;;1.00;;
15486;SDS011;7845;53.698;10.078;2022-07-06T10:48:46;3.70;;;0.80;;
15486;SDS011;7845;53.698;10.078;2022-07-06T10:51:22;5.70;;;0.80;;
15486;SDS011;7845;53.698;10.078;2022-07-06T10:53:55;4.77;;;0.97;;
15486;SDS011;7845;53.698;10.078;2022-07-06T10:56:31;3.27;;;0.67;;
15486;SDS011;7845;53.698;10.078;2022-07-06T10:59:19;3.40;;;0.80;;
15486;SDS011;7845;53.698;10.078;2022-07-06T11:04:36;2.97;;;0.60;;
15486;SDS011;7845;53.698;10.078;2022-07-06T11:07:08;5.03;;;0.60;;
15486;SDS011;7845;53.698;10.078;2022-07-06T11:09:34;3.63;;;0.67;;
15486;SDS011;7845;53.698;10.078;2022-07-06T11:12:07;4.90;;;1.20;;
15486;SDS011;7845;53.698;10.078;2022-07-06T11:14:37;4.70;;;0.80;;
15486;SDS011;7845;53.698;10.078;2022-07-06T11:17:02;3.90;;;0.70;;
15486;SDS011;7845;53.698;10.078;2022-07-06T11:19:30;4.33;;;1.10;;
15486;SDS011;7845;53.698;10.078;2022-07-06T11:21:56;3.70;;;0.50;;
15486;SDS011;7845;53.698;10.078;2022-07-06T11:24:28;4.00;;;1.13;;
15486;SDS011;7845;53.698;10.078;2022-07-06T11:26:56;2.87;;;0.80;;
15486;SDS011;7845;53.698;10.078;2022-07-06T11:29:23;2.83;;;0.50;;
15486;SDS011;7845;53.698;10.078;2022-07-06T11:31:56;4.80;;;0.77;;
15486;SDS011;7845;53.698;10.078;2022-07-06T11:34:24;2.63;;;0.57;;
15486;SDS011;7845;53.698;10.078;2022-07-06T11:36:54;3.20;;;0.70;;
15486;SDS011;7845;53.698;10.078;2022-07-06T11:39:21;4.60;;;1.00;;
15486;SDS011;7845;53.698;10.078;2022-07-06T11:41:46;4.00;;;1.00;;
15486;SDS011;7845;53.698;10.078;2022-07-06T11:44:12;3.40;;;0.63;;
15486;SDS011;7845;53.698;10.078;2022-07-06T11:46:37;3.23;;;0.73;;
15486;SDS011;7845;53.698;10.078;2022-07-06T11:49:04;3.87;;;1.03;;
15486;SDS011;7845;53.698;10.078;2022-07-06T11:51:32;4.07;;;0.90;;
15486;SDS011;7845;53.698;10.078;2022-07-06T11:54:01;4.73;;;1.10;;
15486;SDS011;7845;53.698;10.078;2022-07-06T11:56:32;3.57;;;0.67;;
15486;SDS011;7845;53.698;10.078;2022-07-06T11:58:58;4.93;;;0.77;;
15486;SDS011;7845;53.698;10.078;2022-07-06T12:01:25;4.93;;;1.43;;
15486;SDS011;7845;53.698;10.078;2022-07-06T12:04:00;2.87;;;0.53;;
15486;SDS011;7845;53.698;10.078;2022-07-06T12:06:29;3.37;;;0.63;;
15486;SDS011;7845;53.698;10.078;2022-07-06T12:08:58;4.30;;;0.80;;
15486;SDS011;7845;53.698;10.078;2022-07-06T12:11:28;6.10;;;0.70;;
15486;SDS011;7845;53.698;10.078;2022-07-06T12:13:55;3.00;;;0.70;;
15486;SDS011;7845;53.698;10.078;2022-07-06T12:16:28;2.20;;;0.57;;
15486;SDS011;7845;53.698;10.078;2022-07-06T12:19:01;6.43;;;0.90;;
15486;SDS011;7845;53.698;10.078;2022-07-06T12:21:28;3.70;;;0.53;;
15486;SDS011;7845;53.698;10.078;2022-07-06T12:23:54;3.30;;;0.60;;
15486;SDS011;7845;53.698;10.078;2022-07-06T12:26:21;2.80;;;0.50;;
15486;SDS011;7845;53.698;10.078;2022-07-06T12:29:04;6.63;;;1.20;;
15486;SDS011;7845;53.698;10.078;2022-07-06T12:31:35;2.70;;;0.70;;
15486;SDS011;7845;53.698;10.078;2022-07-06T12:34:02;2.67;;;0.70;;
15486;SDS011;7845;53.698;10.078;2022-07-06T12:36:28;5.40;;;1.17;;
15486;SDS011;7845;53.698;10.078;2022-07-06T12:38:53;2.50;;;0.60;;
15486;SDS011;7845;53.698;10.078;2022-07-06T12:41:34;4.00;;;0.93;;
15486;SDS011;7845;53.698;10.078;2022-07-06T12:44:01;2.90;;;0.70;;
15486;SDS011;7845;53.698;10.078;2022-07-06T12:46:30;2.20;;;0.40;;
15486;SDS011;7845;53.698;10.078;2022-07-06T12:49:10;3.90;;;0.60;;
15486;SDS011;7845;53.698;10.078;2022-07-06T12:51:48;5.70;;;0.93;;
15486;SDS011;7845;53.698;10.078;2022-07-06T12:54:21;4.20;;;0.70;;
15486;SDS011;7845;53.698;10.078;2022-07-06T12:57:02;4.33;;;0.67;;
15486;SDS011;7845;53.698;10.078;2022-07-06T12:59:30;3.87;;;0.60;;
15486;SDS011;7845;53.698;10.078;2022-07-06T13:01:58;3.40;;;0.63;;
15486;SDS011;7845;53.698;10.078;2022-07-06T13:04:24;3.10;;;0.70;;
15486;SDS011;7845;53.698;10.078;2022-07-06T13:06:50;2.87;;;0.50;;
15486;SDS011;7845;53.698;10.078;2022-07-06T13:09:16;3.63;;;0.97;;
15486;SDS011;7845;53.698;10.078;2022-07-06T13:11:41;3.60;;;0.77;;
15486;SDS011;7845;53.698;10.078;2022-07-06T13:14:07;2.40;;;0.60;;
15486;SDS011;7845;53.698;10.078;2022-07-06T13:16:34;4.70;;;0.80;;
15486;SDS011;7845;53.698;10.078;2022-07-06T13:19:03;2.63;;;0.70;;
15486;SDS011;7845;53.698;10.078;2022-07-06T13:21:28;3.60;;;0.67;;
15486;SDS011;7845;53.698;10.078;2022-07-06T13:23:55;6.07;;;0.80;;
15486;SDS011;7845;53.698;10.078;2022-07-06T13:26:21;2.40;;;0.43;;
15486;SDS011;7845;53.698;10.078;2022-07-06T13:28:46;2.77;;;0.50;;
15486;SDS011;7845;53.698;10.078;2022-07-06T13:31:12;3.67;;;0.83;;
15486;SDS011;7845;53.698;10.078;2022-07-06T13:33:37;3.17;;;0.70;;
15486;SDS011;7845;53.698;10.078;2022-07-06T13:36:03;3.13;;;0.57;;
15486;SDS011;7845;53.698;10.078;2022-07-06T13:38:29;4.27;;;0.63;;
15486;SDS011;7845;53.698;10.078;2022-07-06T13:40:55;2.10;;;0.60;;
15486;SDS011;7845;53.698;10.078;2022-07-06T13:43:21;3.07;;;0.60;;
15486;SDS011;7845;53.698;10.078;2022-07-06T13:45:46;2.50;;;0.77;;
15486;SDS011;7845;53.698;10.078;2022-07-06T13:48:12;3.47;;;0.87;;
15486;SDS011;7845;53.698;10.078;2022-07-06T13:50:38;3.07;;;0.70;;
15486;SDS011;7845;53.698;10.078;2022-07-06T13:53:03;2.07;;;0.40;;
15486;SDS011;7845;53.698;10.078;2022-07-06T13:55:29;3.80;;;0.60;;
15486;SDS011;7845;53.698;10.078;2022-07-06T13:57:55;4.93;;;0.97;;
15486;SDS011;7845;53.698;10.078;2022-07-06T14:00:21;3.07;;;0.60;;
15486;SDS011;7845;53.698;10.078;2022-07-06T14:02:46;3.50;;;1.07;;
15486;SDS011;7845;53.698;10.078;2022-07-06T14:05:12;2.90;;;0.77;;
15486;SDS011;7845;53.698;10.078;2022-07-06T14:07:38;3.80;;;0.70;;
15486;SDS011;7845;53.698;10.078;2022-07-06T14:10:04;2.60;;;0.70;;
15486;SDS011;7845;53.698;10.078;2022-07-06T14:12:29;3.07;;;0.50;;
15486;SDS011;7845;53.698;10.078;2022-07-06T14:14:55;2.70;;;0.60;;
15486;SDS011;7845;53.698;10.078;2022-07-06T14:17:21;4.37;;;0.87;;
15486;SDS011;7845;53.698;10.078;2022-07-06T14:19:47;3.20;;;0.70;;
15486;SDS011;7845;53.698;10.078;2022-07-06T14:22:13;2.50;;;0.80;;
15486;SDS011;7845;53.698;10.078;2022-07-06T14:24:38;3.20;;;0.63;;
15486;SDS011;7845;53.698;10.078;2022-07-06T14:27:03;3.17;;;1.13;;
15486;SDS011;7845;53.698;10.078;2022-07-06T14:29:30;4.37;;;0.63;;
15486;SDS011;7845;53.698;10.078;2022-07-06T14:31:55;3.63;;;0.60;;
15486;SDS011;7845;53.698;10.078;2022-07-06T14:34:20;3.67;;;0.90;;
15486;SDS011;7845;53.698;10.078;2022-07-06T14:36:46;4.80;;;0.60;;
15486;SDS011;7845;53.698;10.078;2022-07-06T14:39:12;4.20;;;0.63;;
15486;SDS011;7845;53.698;10.078;2022-07-06T14:41:38;2.60;;;0.60;;
15486;SDS011;7845;53.698;10.078;2022-07-06T14:44:04;3.17;;;0.50;;
15486;SDS011;7845;53.698;10.078;2022-07-06T14:46:30;3.40;;;0.53;;
15486;SDS011;7845;53.698;10.078;2022-07-06T14:48:56;2.97;;;0.70;;